sensor_id;sensor_type;location;lat;lon;timestamp;pressure;altitude;pressure_sealevel;temperature;humidity
11345;BME280;5727;42.600;23.028;2023-02-18T00:01:29;94468.00;;;2.31;100.00
11345;BME280;5727;42.600;23.028;2023-02-18T00:03:56;94468.50;;;2.28;100.00
11345;BME280;5727;42.600;23.028;2023-02-18T00:06:26;94461.78;;;2.27;100.00
11345;BME280;5727;42.600;23.028;2023-02-18T00:08:53;94451.44;;;2.27;100.00
11345;BME280;5727;42.600;23.028;2023-02-18T00:11:23;94460.50;;;2.25;100.00
11345;BME280;5727;42.600;23.028;2023-02-18T00:13:50;94443.41;;;2.19;100.00
11345;BME280;5727;42.600;23.028;2023-02-18T00:16:16;94444.44;;;2.18;100.00
11345;BME280;5727;42.600;23.028;2023-02-18T00:18:43;94443.38;;;2.14;100.00
11345;BME280;5727;42.600;23.028;2023-02-18T00:21:10;94444.69;;;2.11;100.00
11345;BME280;5727;42.600;23.028;2023-02-18T00:23:37;94440.53;;;2.10;100.00
11345;BME280;5727;42.600;23.028;2023-02-18T00:26:06;94429.94;;;2.07;100.00
11345;BME280;5727;42.600;23.028;2023-02-18T00:28:35;94426.03;;;2.04;100.00
11345;BME280;5727;42.600;23.028;2023-02-18T00:31:06;94420.34;;;1.97;100.00
11345;BME280;5727;42.600;23.028;2023-02-18T00:33:33;94415.19;;;1.97;100.00
11345;BME280;5727;42.600;23.028;2023-02-18T00:36:01;94408.75;;;2.00;100.00
11345;BME280;5727;42.600;23.028;2023-02-18T00:38:28;94407.16;;;1.99;100.00
11345;BME280;5727;42.600;23.028;2023-02-18T00:40:54;94403.28;;;1.96;100.00
11345;BME280;5727;42.600;23.028;2023-02-18T00:43:21;94403.03;;;1.98;100.00
11345;BME280;5727;42.600;23.028;2023-02-18T00:45:49;94406.13;;;1.95;100.00
11345;BME280;5727;42.600;23.028;2023-02-18T00:48:19;94400.44;;;1.88;100.00
11345;BME280;5727;42.600;23.028;2023-02-18T00:50:46;94409.72;;;1.83;100.00
11345;BME280;5727;42.600;23.028;2023-02-18T00:53:15;94409.72;;;1.83;100.00
11345;BME280;5727;42.600;23.028;2023-02-18T00:55:43;94402.22;;;1.82;100.00
11345;BME280;5727;42.600;23.028;2023-02-18T00:58:12;94398.59;;;1.78;100.00
11345;BME280;5727;42.600;23.028;2023-02-18T01:00:40;94394.22;;;1.78;100.00
11345;BME280;5727;42.600;23.028;2023-02-18T01:03:08;94389.53;;;1.75;100.00
11345;BME280;5727;42.600;23.028;2023-02-18T01:05:36;94394.44;;;1.77;100.00
11345;BME280;5727;42.600;23.028;2023-02-18T01:08:04;94390.31;;;1.76;100.00
11345;BME280;5727;42.600;23.028;2023-02-18T01:10:31;94392.16;;;1.80;100.00
11345;BME280;5727;42.600;23.028;2023-02-18T01:12:58;94387.22;;;1.79;100.00
11345;BME280;5727;42.600;23.028;2023-02-18T01:15:25;94386.94;;;1.75;100.00
11345;BME280;5727;42.600;23.028;2023-02-18T01:17:51;94389.28;;;1.77;100.00
11345;BME280;5727;42.600;23.028;2023-02-18T01:20:20;94390.59;;;1.74;100.00
11345;BME280;5727;42.600;23.028;2023-02-18T01:22:47;94377.13;;;1.72;100.00
11345;BME280;5727;42.600;23.028;2023-02-18T01:25:14;94380.78;;;1.76;100.00
11345;BME280;5727;42.600;23.028;2023-02-18T01:27:41;94384.63;;;1.79;100.00
11345;BME280;5727;42.600;23.028;2023-02-18T01:30:11;94381.78;;;1.70;100.00
11345;BME280;5727;42.600;23.028;2023-02-18T01:32:38;94378.16;;;1.71;100.00
11345;BME280;5727;42.600;23.028;2023-02-18T01:35:07;94384.09;;;1.67;100.00
11345;BME280;5727;42.600;23.028;2023-02-18T01:37:37;94389.97;;;1.47;100.00
11345;BME280;5727;42.600;23.028;2023-02-18T01:40:05;94397.44;;;1.44;100.00
11345;BME280;5727;42.600;23.028;2023-02-18T01:42:32;94403.34;;;1.44;100.00
11345;BME280;5727;42.600;23.028;2023-02-18T01:45:39;94403.13;;;1.46;100.00
11345;BME280;5727;42.600;23.028;2023-02-18T01:48:10;94397.97;;;1.46;100.00
11345;BME280;5727;42.600;23.028;2023-02-18T01:50:40;94396.13;;;1.46;100.00
11345;BME280;5727;42.600;23.028;2023-02-18T01:53:13;94404.13;;;1.40;100.00
11345;BME280;5727;42.600;23.028;2023-02-18T01:55:41;94400.16;;;1.22;100.00
11345;BME280;5727;42.600;23.028;2023-02-18T01:58:10;94402.75;;;1.22;100.00
11345;BME280;5727;42.600;23.028;2023-02-18T02:00:38;94409.44;;;1.23;100.00
11345;BME280;5727;42.600;23.028;2023-02-18T02:03:05;94404.28;;;1.23;100.00
11345;BME280;5727;42.600;23.028;2023-02-18T02:05:33;94402.25;;;1.25;100.00
11345;BME280;5727;42.600;23.028;2023-02-18T02:08:00;94414.13;;;1.26;100.00
11345;BME280;5727;42.600;23.028;2023-02-18T02:10:37;94416.72;;;1.26;100.00
11345;BME280;5727;42.600;23.028;2023-02-18T02:13:13;94418.69;;;1.14;100.00
11345;BME280;5727;42.600;23.028;2023-02-18T02:15:45;94415.63;;;1.17;100.00
11345;BME280;5727;42.600;23.028;2023-02-18T02:18:31;94413.25;;;1.11;100.00
11345;BME280;5727;42.600;23.028;2023-02-18T02:27:22;94415.88;;;1.16;100.00
11345;BME280;5727;42.600;23.028;2023-02-18T02:33:43;94400.63;;;1.14;100.00
11345;BME280;5727;42.600;23.028;2023-02-18T02:36:19;94398.25;;;1.03;100.00
11345;BME280;5727;42.600;23.028;2023-02-18T02:38:54;94389.72;;;1.02;100.00
11345;BME280;5727;42.600;23.028;2023-02-18T02:41:30;94390.53;;;1.08;100.00
11345;BME280;5727;42.600;23.028;2023-02-18T02:44:09;94397.00;;;1.10;100.00
11345;BME280;5727;42.600;23.028;2023-02-18T02:46:39;94399.56;;;1.10;100.00
11345;BME280;5727;42.600;23.028;2023-02-18T02:49:12;94406.31;;;1.11;100.00
11345;BME280;5727;42.600;23.028;2023-02-18T02:51:45;94398.53;;;1.06;100.00
11345;BME280;5727;42.600;23.028;2023-02-18T02:54:17;94390.25;;;1.04;100.00
11345;BME280;5727;42.600;23.028;2023-02-18T02:56:43;94396.94;;;1.00;100.00
11345;BME280;5727;42.600;23.028;2023-02-18T02:59:23;94397.72;;;1.01;100.00
11345;BME280;5727;42.600;23.028;2023-02-18T03:02:02;94395.38;;;0.99;100.00
11345;BME280;5727;42.600;23.028;2023-02-18T03:04:50;94402.88;;;0.64;100.00
11345;BME280;5727;42.600;23.028;2023-02-18T03:07:40;94400.63;;;0.72;100.00
11345;BME280;5727;42.600;23.028;2023-02-18T03:10:18;94405.56;;;0.79;100.00
11345;BME280;5727;42.600;23.028;2023-02-18T03:12:51;94404.53;;;0.75;100.00
11345;BME280;5727;42.600;23.028;2023-02-18T03:15:25;94410.69;;;0.74;100.00
11345;BME280;5727;42.600;23.028;2023-02-18T03:17:58;94411.97;;;0.71;100.00
11345;BME280;5727;42.600;23.028;2023-02-18T03:20:31;94412.28;;;0.75;100.00
11345;BME280;5727;42.600;23.028;2023-02-18T03:23:04;94418.19;;;0.75;100.00
11345;BME280;5727;42.600;23.028;2023-02-18T03:25:33;94411.50;;;0.74;100.00
11345;BME280;5727;42.600;23.028;2023-02-18T03:28:05;94413.53;;;0.72;100.00
11345;BME280;5727;42.600;23.028;2023-02-18T03:30:39;94422.50;;;0.65;100.00
11345;BME280;5727;42.600;23.028;2023-02-18T03:33:09;94420.75;;;0.70;100.00
11345;BME280;5727;42.600;23.028;2023-02-18T03:35:37;94414.25;;;0.68;100.00
11345;BME280;5727;42.600;23.028;2023-02-18T03:38:11;94429.47;;;0.69;100.00
11345;BME280;5727;42.600;23.028;2023-02-18T03:40:40;94435.16;;;0.71;100.00
11345;BME280;5727;42.600;23.028;2023-02-18T03:43:06;94441.41;;;0.75;100.00
11345;BME280;5727;42.600;23.028;2023-02-18T03:45:33;94445.75;;;0.70;100.00
11345;BME280;5727;42.600;23.028;2023-02-18T03:48:00;94451.97;;;0.74;100.00
11345;BME280;5727;42.600;23.028;2023-02-18T03:50:26;94444.47;;;0.72;100.00
11345;BME280;5727;42.600;23.028;2023-02-18T03:52:53;94456.84;;;0.70;100.00
11345;BME280;5727;42.600;23.028;2023-02-18T03:55:21;94464.31;;;0.72;100.00
11345;BME280;5727;42.600;23.028;2023-02-18T03:57:48;94460.97;;;0.40;100.00
11345;BME280;5727;42.600;23.028;2023-02-18T04:00:15;94470.47;;;0.39;100.00
11345;BME280;5727;42.600;23.028;2023-02-18T04:02:42;94464.34;;;0.45;100.00
11345;BME280;5727;42.600;23.028;2023-02-18T04:05:09;94469.50;;;0.45;100.00
11345;BME280;5727;42.600;23.028;2023-02-18T04:07:36;94464.34;;;0.45;100.00
11345;BME280;5727;42.600;23.028;2023-02-18T04:10:04;94461.16;;;0.33;100.00
11345;BME280;5727;42.600;23.028;2023-02-18T04:12:34;94444.91;;;0.33;100.00
11345;BME280;5727;42.600;23.028;2023-02-18T04:15:00;94440.78;;;0.32;100.00
11345;BME280;5727;42.600;23.028;2023-02-18T04:17:27;94436.44;;;0.37;100.00
11345;BME280;5727;42.600;23.028;2023-02-18T04:19:54;94423.00;;;0.35;100.00
11345;BME280;5727;42.600;23.028;2023-02-18T04:22:20;94425.94;;;0.44;100.00
11345;BME280;5727;42.600;23.028;2023-02-18T04:24:47;94429.09;;;0.51;100.00
11345;BME280;5727;42.600;23.028;2023-02-18T04:27:14;94429.88;;;0.51;100.00
11345;BME280;5727;42.600;23.028;2023-02-18T04:29:42;94434.78;;;0.53;100.00
11345;BME280;5727;42.600;23.028;2023-02-18T04:32:09;94431.16;;;0.54;100.00
11345;BME280;5727;42.600;23.028;2023-02-18T04:34:35;94433.00;;;0.58;100.00
11345;BME280;5727;42.600;23.028;2023-02-18T04:37:02;94425.81;;;0.60;100.00
11345;BME280;5727;42.600;23.028;2023-02-18T04:39:29;94425.56;;;0.62;100.00
11345;BME280;5727;42.600;23.028;2023-02-18T04:41:56;94415.31;;;0.67;100.00
11345;BME280;5727;42.600;23.028;2023-02-18T04:44:22;94414.25;;;0.68;100.00
11345;BME280;5727;42.600;23.028;2023-02-18T04:46:50;94413.25;;;0.69;100.00
11345;BME280;5727;42.600;23.028;2023-02-18T04:49:17;94416.06;;;0.67;100.00
11345;BME280;5727;42.600;23.028;2023-02-18T04:51:44;94422.00;;;0.68;100.00
11345;BME280;5727;42.600;23.028;2023-02-18T04:54:11;94415.84;;;0.69;100.00
11345;BME280;5727;42.600;23.028;2023-02-18T04:56:37;94414.78;;;0.70;100.00
11345;BME280;5727;42.600;23.028;2023-02-18T04:59:04;94421.44;;;0.61;100.00
11345;BME280;5727;42.600;23.028;2023-02-18T05:01:31;94435.59;;;0.58;100.00
11345;BME280;5727;42.600;23.028;2023-02-18T05:03:59;94437.88;;;0.55;100.00
11345;BME280;5727;42.600;23.028;2023-02-18T05:06:25;94439.16;;;0.52;100.00
11345;BME280;5727;42.600;23.028;2023-02-18T05:08:52;94430.41;;;0.53;100.00
11345;BME280;5727;42.600;23.028;2023-02-18T05:11:19;94429.91;;;0.56;100.00
11345;BME280;5727;42.600;23.028;2023-02-18T05:13:46;94436.84;;;0.56;100.00
11345;BME280;5727;42.600;23.028;2023-02-18T05:16:12;94432.47;;;0.56;100.00
11345;BME280;5727;42.600;23.028;2023-02-18T05:18:39;94423.47;;;0.59;100.00
11345;BME280;5727;42.600;23.028;2023-02-18T05:21:07;94432.75;;;0.60;100.00
11345;BME280;5727;42.600;23.028;2023-02-18T05:23:34;94419.59;;;0.25;100.00
11345;BME280;5727;42.600;23.028;2023-02-18T05:26:00;94420.00;;;0.43;100.00
11345;BME280;5727;42.600;23.028;2023-02-18T05:28:27;94425.50;;;0.52;100.00
11345;BME280;5727;42.600;23.028;2023-02-18T05:30:54;94444.31;;;0.52;100.00
11345;BME280;5727;42.600;23.028;2023-02-18T05:33:20;94439.19;;;0.57;100.00
11345;BME280;5727;42.600;23.028;2023-02-18T05:35:47;94436.41;;;0.64;100.00
11345;BME280;5727;42.600;23.028;2023-02-18T05:38:15;94428.72;;;0.69;100.00
11345;BME280;5727;42.600;23.028;2023-02-18T05:40:42;94426.19;;;0.74;100.00
11345;BME280;5727;42.600;23.028;2023-02-18T05:43:09;94427.25;;;0.78;100.00
11345;BME280;5727;42.600;23.028;2023-02-18T05:45:36;94432.69;;;0.86;100.00
11345;BME280;5727;42.600;23.028;2023-02-18T05:48:03;94437.91;;;0.91;100.00
11345;BME280;5727;42.600;23.028;2023-02-18T05:50:30;94429.91;;;0.93;100.00
11345;BME280;5727;42.600;23.028;2023-02-18T05:52:57;94429.94;;;0.98;100.00
11345;BME280;5727;42.600;23.028;2023-02-18T05:55:25;94439.31;;;1.09;100.00
11345;BME280;5727;42.600;23.028;2023-02-18T05:57:52;94441.50;;;0.90;100.00
11345;BME280;5727;42.600;23.028;2023-02-18T06:00:19;94442.50;;;0.84;100.00
11345;BME280;5727;42.600;23.028;2023-02-18T06:02:45;94437.91;;;0.91;100.00
11345;BME280;5727;42.600;23.028;2023-02-18T06:05:12;94462.59;;;0.51;100.00
11345;BME280;5727;42.600;23.028;2023-02-18T06:07:39;94455.31;;;0.43;100.00
11345;BME280;5727;42.600;23.028;2023-02-18T06:10:06;94451.63;;;0.34;100.00
11345;BME280;5727;42.600;23.028;2023-02-18T06:12:34;94470.97;;;0.36;100.00
11345;BME280;5727;42.600;23.028;2023-02-18T06:15:01;94467.09;;;0.34;100.00
11345;BME280;5727;42.600;23.028;2023-02-18T06:17:28;94481.63;;;0.45;100.00
11345;BME280;5727;42.600;23.028;2023-02-18T06:19:55;94476.44;;;0.40;100.00
11345;BME280;5727;42.600;23.028;2023-02-18T06:22:22;94470.44;;;0.34;100.00
11345;BME280;5727;42.600;23.028;2023-02-18T06:24:48;94465.63;;;0.43;100.00
11345;BME280;5727;42.600;23.028;2023-02-18T06:27:15;94469.09;;;0.58;100.00
11345;BME280;5727;42.600;23.028;2023-02-18T06:29:43;94454.41;;;0.59;100.00
11345;BME280;5727;42.600;23.028;2023-02-18T06:32:10;94440.56;;;0.65;100.00
11345;BME280;5727;42.600;23.028;2023-02-18T06:34:37;94448.00;;;0.61;100.00
11345;BME280;5727;42.600;23.028;2023-02-18T06:37:04;94437.03;;;0.81;100.00
11345;BME280;5727;42.600;23.028;2023-02-18T06:39:30;94444.88;;;0.91;100.00
11345;BME280;5727;42.600;23.028;2023-02-18T06:41:57;94445.94;;;1.00;100.00
11345;BME280;5727;42.600;23.028;2023-02-18T06:44:24;94446.88;;;1.21;100.00
11345;BME280;5727;42.600;23.028;2023-02-18T06:46:52;94457.03;;;1.37;100.00
11345;BME280;5727;42.600;23.028;2023-02-18T06:49:19;94463.31;;;1.56;100.00
11345;BME280;5727;42.600;23.028;2023-02-18T06:51:46;94459.78;;;1.72;100.00
11345;BME280;5727;42.600;23.028;2023-02-18T06:54:12;94458.75;;;1.73;100.00
11345;BME280;5727;42.600;23.028;2023-02-18T06:56:39;94460.34;;;1.84;100.00
11345;BME280;5727;42.600;23.028;2023-02-18T06:59:06;94461.66;;;1.82;100.00
11345;BME280;5727;42.600;23.028;2023-02-18T07:01:33;94464.72;;;1.79;100.00
11345;BME280;5727;42.600;23.028;2023-02-18T07:04:01;94466.81;;;1.82;100.00
11345;BME280;5727;42.600;23.028;2023-02-18T07:06:27;94457.44;;;1.66;100.00
11345;BME280;5727;42.600;23.028;2023-02-18T07:08:54;94463.44;;;1.86;100.00
11345;BME280;5727;42.600;23.028;2023-02-18T07:11:21;94471.81;;;2.09;100.00
11345;BME280;5727;42.600;23.028;2023-02-18T07:13:48;94471.34;;;2.27;100.00
11345;BME280;5727;42.600;23.028;2023-02-18T07:16:15;94471.34;;;2.32;100.00
11345;BME280;5727;42.600;23.028;2023-02-18T07:18:41;94458.72;;;2.45;100.00
11345;BME280;5727;42.600;23.028;2023-02-18T07:21:09;94458.47;;;2.57;100.00
11345;BME280;5727;42.600;23.028;2023-02-18T07:23:36;94463.13;;;2.70;99.65
11345;BME280;5727;42.600;23.028;2023-02-18T07:26:05;94454.63;;;2.74;99.14
11345;BME280;5727;42.600;23.028;2023-02-18T07:28:32;94449.19;;;2.86;98.80
11345;BME280;5727;42.600;23.028;2023-02-18T07:30:59;94442.69;;;2.99;98.91
11345;BME280;5727;42.600;23.028;2023-02-18T07:33:26;94439.06;;;3.10;97.52
11345;BME280;5727;42.600;23.028;2023-02-18T07:35:53;94438.53;;;3.08;97.52
11345;BME280;5727;42.600;23.028;2023-02-18T07:38:22;94439.31;;;3.18;97.04
11345;BME280;5727;42.600;23.028;2023-02-18T07:40:49;94436.19;;;3.26;96.53
11345;BME280;5727;42.600;23.028;2023-02-18T07:43:16;94428.69;;;3.30;97.29
11345;BME280;5727;42.600;23.028;2023-02-18T07:45:44;94433.56;;;3.41;96.93
11345;BME280;5727;42.600;23.028;2023-02-18T07:48:11;94433.00;;;3.64;96.16
11345;BME280;5727;42.600;23.028;2023-02-18T07:50:38;94442.81;;;3.67;94.52
11345;BME280;5727;42.600;23.028;2023-02-18T07:53:05;94447.94;;;3.83;93.82
11345;BME280;5727;42.600;23.028;2023-02-18T07:55:34;94454.91;;;3.97;92.79
11345;BME280;5727;42.600;23.028;2023-02-18T07:58:18;94448.84;;;4.17;91.08
11345;BME280;5727;42.600;23.028;2023-02-18T08:00:45;94448.47;;;4.33;91.42
11345;BME280;5727;42.600;23.028;2023-02-18T08:03:14;94449.44;;;4.47;91.37
11345;BME280;5727;42.600;23.028;2023-02-18T08:05:41;94447.03;;;4.56;90.15
11345;BME280;5727;42.600;23.028;2023-02-18T08:08:11;94436.66;;;4.61;90.18
11345;BME280;5727;42.600;23.028;2023-02-18T08:10:40;94439.66;;;4.73;90.04
11345;BME280;5727;42.600;23.028;2023-02-18T08:13:06;94444.34;;;4.71;89.13
11345;BME280;5727;42.600;23.028;2023-02-18T08:15:33;94432.94;;;4.72;88.38
11345;BME280;5727;42.600;23.028;2023-02-18T08:18:01;94445.06;;;4.77;87.44
11345;BME280;5727;42.600;23.028;2023-02-18T08:20:28;94445.84;;;4.77;88.22
11345;BME280;5727;42.600;23.028;2023-02-18T08:22:54;94441.16;;;4.79;89.28
11345;BME280;5727;42.600;23.028;2023-02-18T08:25:21;94429.16;;;4.88;88.52
11345;BME280;5727;42.600;23.028;2023-02-18T08:27:49;94433.47;;;5.03;87.80
11345;BME280;5727;42.600;23.028;2023-02-18T08:30:16;94439.44;;;5.03;86.40
11345;BME280;5727;42.600;23.028;2023-02-18T08:32:43;94436.06;;;5.03;88.43
11345;BME280;5727;42.600;23.028;2023-02-18T08:35:10;94440.06;;;5.19;87.01
11345;BME280;5727;42.600;23.028;2023-02-18T08:37:37;94446.03;;;5.19;85.53
11345;BME280;5727;42.600;23.028;2023-02-18T08:40:05;94447.44;;;5.35;84.34
11345;BME280;5727;42.600;23.028;2023-02-18T08:42:32;94444.09;;;5.58;83.83
11345;BME280;5727;42.600;23.028;2023-02-18T08:45:00;94434.47;;;5.83;82.49
11345;BME280;5727;42.600;23.028;2023-02-18T08:47:26;94431.91;;;6.01;80.89
11345;BME280;5727;42.600;23.028;2023-02-18T08:49:53;94430.72;;;5.94;81.56
11345;BME280;5727;42.600;23.028;2023-02-18T08:52:20;94426.06;;;6.14;81.00
11345;BME280;5727;42.600;23.028;2023-02-18T08:54:47;94430.06;;;5.83;82.04
11345;BME280;5727;42.600;23.028;2023-02-18T08:57:14;94418.47;;;5.71;84.12
11345;BME280;5727;42.600;23.028;2023-02-18T08:59:41;94420.84;;;5.67;85.62
11345;BME280;5727;42.600;23.028;2023-02-18T09:02:10;94403.13;;;5.50;87.11
11345;BME280;5727;42.600;23.028;2023-02-18T09:04:38;94401.16;;;5.61;86.96
11345;BME280;5727;42.600;23.028;2023-02-18T09:07:05;94399.53;;;5.70;87.26
11345;BME280;5727;42.600;23.028;2023-02-18T09:09:32;94399.88;;;5.87;86.06
11345;BME280;5727;42.600;23.028;2023-02-18T09:11:58;94409.78;;;6.04;85.55
11345;BME280;5727;42.600;23.028;2023-02-18T09:14:25;94410.88;;;6.21;84.42
11345;BME280;5727;42.600;23.028;2023-02-18T09:16:52;94409.63;;;6.37;82.52
11345;BME280;5727;42.600;23.028;2023-02-18T09:19:20;94407.50;;;6.39;82.94
11345;BME280;5727;42.600;23.028;2023-02-18T09:21:47;94409.03;;;6.59;82.59
11345;BME280;5727;42.600;23.028;2023-02-18T09:24:14;94417.31;;;6.80;81.73
11345;BME280;5727;42.600;23.028;2023-02-18T09:26:41;94406.53;;;6.86;80.53
11345;BME280;5727;42.600;23.028;2023-02-18T09:29:08;94415.06;;;7.05;80.34
11345;BME280;5727;42.600;23.028;2023-02-18T09:31:35;94409.03;;;7.23;79.67
11345;BME280;5727;42.600;23.028;2023-02-18T09:34:02;94403.38;;;7.35;77.19
11345;BME280;5727;42.600;23.028;2023-02-18T09:36:31;94397.41;;;7.62;76.46
11345;BME280;5727;42.600;23.028;2023-02-18T09:38:58;94391.88;;;7.77;75.38
11345;BME280;5727;42.600;23.028;2023-02-18T09:41:31;94391.59;;;7.92;73.92
11345;BME280;5727;42.600;23.028;2023-02-18T09:44:02;94394.47;;;8.04;73.60
11345;BME280;5727;42.600;23.028;2023-02-18T09:46:33;94394.47;;;8.31;73.56
11345;BME280;5727;42.600;23.028;2023-02-18T09:49:02;94387.78;;;8.61;73.06
11345;BME280;5727;42.600;23.028;2023-02-18T09:51:33;94396.50;;;8.78;71.67
11345;BME280;5727;42.600;23.028;2023-02-18T09:54:00;94382.09;;;8.81;71.21
11345;BME280;5727;42.600;23.028;2023-02-18T09:56:28;94378.81;;;8.97;70.64
11345;BME280;5727;42.600;23.028;2023-02-18T09:58:57;94372.63;;;8.93;70.33
11345;BME280;5727;42.600;23.028;2023-02-18T10:01:29;94372.09;;;9.05;70.56
11345;BME280;5727;42.600;23.028;2023-02-18T10:04:01;94371.06;;;9.14;69.73
11345;BME280;5727;42.600;23.028;2023-02-18T10:06:31;94379.69;;;9.15;68.94
11345;BME280;5727;42.600;23.028;2023-02-18T10:09:02;94370.56;;;9.04;69.36
11345;BME280;5727;42.600;23.028;2023-02-18T10:11:32;94358.66;;;8.89;71.86
11345;BME280;5727;42.600;23.028;2023-02-18T10:14:01;94355.91;;;8.94;72.19
11345;BME280;5727;42.600;23.028;2023-02-18T10:16:29;94358.66;;;9.20;70.84
11345;BME280;5727;42.600;23.028;2023-02-18T10:18:58;94353.06;;;9.44;69.54
11345;BME280;5727;42.600;23.028;2023-02-18T10:21:28;94348.25;;;9.76;67.07
11345;BME280;5727;42.600;23.028;2023-02-18T10:24:03;94345.38;;;9.95;66.03
11345;BME280;5727;42.600;23.028;2023-02-18T10:26:33;94343.41;;;10.43;65.33
11345;BME280;5727;42.600;23.028;2023-02-18T10:29:01;94336.03;;;10.79;63.69
11345;BME280;5727;42.600;23.028;2023-02-18T10:31:30;94335.03;;;11.10;61.58
11345;BME280;5727;42.600;23.028;2023-02-18T10:34:04;94333.25;;;11.31;57.41
11345;BME280;5727;42.600;23.028;2023-02-18T10:36:36;94334.44;;;11.50;55.64
11345;BME280;5727;42.600;23.028;2023-02-18T10:39:22;94326.78;;;11.74;54.66
11345;BME280;5727;42.600;23.028;2023-02-18T10:42:09;94326.44;;;12.05;53.80
11345;BME280;5727;42.600;23.028;2023-02-18T10:44:44;94312.28;;;12.18;50.04
11345;BME280;5727;42.600;23.028;2023-02-18T10:47:19;94307.03;;;12.39;46.91
11345;BME280;5727;42.600;23.028;2023-02-18T10:50:02;94310.59;;;12.55;43.98
11345;BME280;5727;42.600;23.028;2023-02-18T10:52:33;94302.66;;;12.63;41.18
11345;BME280;5727;42.600;23.028;2023-02-18T10:55:07;94303.00;;;12.74;40.82
11345;BME280;5727;42.600;23.028;2023-02-18T10:57:44;94290.56;;;12.83;39.07
11345;BME280;5727;42.600;23.028;2023-02-18T11:00:16;94299.13;;;12.92;39.47
11345;BME280;5727;42.600;23.028;2023-02-18T11:02:43;94285.28;;;13.04;37.85
11345;BME280;5727;42.600;23.028;2023-02-18T11:05:18;94279.28;;;13.27;37.19
11345;BME280;5727;42.600;23.028;2023-02-18T11:07:52;94277.31;;;13.48;36.35
11345;BME280;5727;42.600;23.028;2023-02-18T11:10:25;94268.19;;;13.70;35.79
11345;BME280;5727;42.600;23.028;2023-02-18T11:12:57;94270.56;;;13.87;36.28
11345;BME280;5727;42.600;23.028;2023-02-18T11:15:26;94265.19;;;14.08;35.25
11345;BME280;5727;42.600;23.028;2023-02-18T11:17:55;94258.91;;;14.12;33.72
11345;BME280;5727;42.600;23.028;2023-02-18T11:20:28;94256.06;;;14.17;33.80
11345;BME280;5727;42.600;23.028;2023-02-18T11:23:14;94256.38;;;14.16;33.17
11345;BME280;5727;42.600;23.028;2023-02-18T11:25:52;94250.13;;;14.08;33.70
11345;BME280;5727;42.600;23.028;2023-02-18T11:28:29;94249.69;;;14.06;34.24
11345;BME280;5727;42.600;23.028;2023-02-18T11:30:58;94240.81;;;13.99;34.33
11345;BME280;5727;42.600;23.028;2023-02-18T11:33:31;94235.44;;;14.07;34.88
11345;BME280;5727;42.600;23.028;2023-02-18T11:36:08;94234.09;;;14.13;34.80
11345;BME280;5727;42.600;23.028;2023-02-18T11:38:44;94231.09;;;14.27;34.56
11345;BME280;5727;42.600;23.028;2023-02-18T11:41:15;94225.91;;;14.42;34.96
11345;BME280;5727;42.600;23.028;2023-02-18T11:43:46;94224.06;;;14.58;34.85
11345;BME280;5727;42.600;23.028;2023-02-18T11:46:16;94213.31;;;14.51;33.74
11345;BME280;5727;42.600;23.028;2023-02-18T11:48:44;94215.44;;;14.46;33.81
11345;BME280;5727;42.600;23.028;2023-02-18T11:51:15;94211.78;;;14.50;34.62
11345;BME280;5727;42.600;23.028;2023-02-18T11:53:57;94205.44;;;14.67;34.49
11345;BME280;5727;42.600;23.028;2023-02-18T11:56:28;94203.06;;;14.78;33.88
11345;BME280;5727;42.600;23.028;2023-02-18T11:58:56;94197.72;;;14.90;34.10
11345;BME280;5727;42.600;23.028;2023-02-18T12:01:42;94192.44;;;15.05;33.06
11345;BME280;5727;42.600;23.028;2023-02-18T12:04:13;94182.47;;;15.14;34.33
11345;BME280;5727;42.600;23.028;2023-02-18T12:06:48;94174.97;;;15.32;33.37
11345;BME280;5727;42.600;23.028;2023-02-18T12:09:25;94168.56;;;15.48;33.93
11345;BME280;5727;42.600;23.028;2023-02-18T12:11:57;94163.16;;;15.76;33.55
11345;BME280;5727;42.600;23.028;2023-02-18T12:14:26;94161.75;;;15.82;32.22
11345;BME280;5727;42.600;23.028;2023-02-18T12:17:12;94165.84;;;15.80;31.74
11345;BME280;5727;42.600;23.028;2023-02-18T12:19:53;94167.66;;;15.76;31.35
11345;BME280;5727;42.600;23.028;2023-02-18T12:22:31;94160.78;;;15.71;31.53
11345;BME280;5727;42.600;23.028;2023-02-18T12:25:23;94152.84;;;15.52;31.78
11345;BME280;5727;42.600;23.028;2023-02-18T12:28:00;94154.06;;;15.58;32.32
11345;BME280;5727;42.600;23.028;2023-02-18T12:30:55;94151.31;;;15.70;32.38
11345;BME280;5727;42.600;23.028;2023-02-18T12:33:33;94144.09;;;16.05;32.06
11345;BME280;5727;42.600;23.028;2023-02-18T12:36:11;94142.13;;;16.40;32.36
11345;BME280;5727;42.600;23.028;2023-02-18T12:38:53;94133.69;;;16.54;31.82
11345;BME280;5727;42.600;23.028;2023-02-18T12:41:35;94132.59;;;16.36;31.23
11345;BME280;5727;42.600;23.028;2023-02-18T12:44:19;94132.03;;;16.46;30.95
11345;BME280;5727;42.600;23.028;2023-02-18T12:47:03;94132.03;;;16.46;31.10
11345;BME280;5727;42.600;23.028;2023-02-18T12:49:59;94134.25;;;16.44;30.90
11345;BME280;5727;42.600;23.028;2023-02-18T12:52:39;94129.97;;;16.17;31.42
11345;BME280;5727;42.600;23.028;2023-02-18T12:55:35;94131.16;;;16.19;32.05
11345;BME280;5727;42.600;23.028;2023-02-18T12:58:11;94129.22;;;15.78;31.94
11345;BME280;5727;42.600;23.028;2023-02-18T13:01:10;94129.00;;;15.68;32.29
11345;BME280;5727;42.600;23.028;2023-02-18T13:07:09;94131.56;;;16.21;32.26
11345;BME280;5727;42.600;23.028;2023-02-18T13:09:56;94124.19;;;16.30;31.99
11345;BME280;5727;42.600;23.028;2023-02-18T13:12:30;94123.94;;;16.39;31.87
11345;BME280;5727;42.600;23.028;2023-02-18T13:15:02;94120.59;;;16.84;31.54
11345;BME280;5727;42.600;23.028;2023-02-18T13:17:35;94117.31;;;17.42;30.50
11345;BME280;5727;42.600;23.028;2023-02-18T13:20:13;94121.31;;;17.85;30.37
11345;BME280;5727;42.600;23.028;2023-02-18T13:22:43;94127.09;;;17.94;30.41
11345;BME280;5727;42.600;23.028;2023-02-18T13:25:14;94116.22;;;18.03;30.48
11345;BME280;5727;42.600;23.028;2023-02-18T13:27:47;94119.50;;;17.93;29.68
11345;BME280;5727;42.600;23.028;2023-02-18T13:30:20;94126.56;;;17.82;29.54
11345;BME280;5727;42.600;23.028;2023-02-18T13:33:08;94118.97;;;17.80;30.04